Bei Facebook empfehlenBei Twitter postenGoogle plusPinterest

Das Wetter im Erzgebirge am 03.02.2017

Wetter und Klima am 03.02.2017 Holzhau im Erzgebirge (630m ü.NN)
Letzte gemessene Temperatur und Uhrzeit der Messung23:45:00 Uhr1.90 °C
Temperatur (Maximum / Höchstwert) und Uhrzeit der Messung12:15:00 Uhr7.10 °C
Temperatur (Minimum / Tiefstwert) und Uhrzeit der Messung08:15:000.30 °C
Errechneter Absolutwert der Temperaturschwankungen zwischen Tmin und Tmax des Tages6.80 K
Errechnete Tagesmitteltemperatur2.59063 °C
Gesamt - Niederschlag des Tages (in flüssiger Form)2.07 Liter / m²
Luftdruck (Maximum / Höchstwert) und Zeitpunkt der Messung00:00:00 Uhr1008.00 hPa
Luftdruck (Minimum / Tiefstwert) und Zeitpunkt der Messung23:30:00 Uhr1003.10 hPa
Errechneter Absolutwert der Luftdruckschwankungen des Tages4.90 hPa
Höchste gemessene Windgeschwindigkeit und Uhrzeit der Messung21:15:00 Uhr8.28 km/h
Errechnete Windhäufigkeit in Relation zu den Messwerten des Tages23.95833 %
Niedrigste Windkühle (Windchill) und Zeitpunkt der Messung21:15:00 Uhr-1.20 °C
Taupunkt (Maximum / Höchstwert) und Uhrzeit der Messung11:45:00 Uhr4.90 °C
Taupunkt (Minimum / Tiefstwert) und Uhrzeit der Messung08:15:00-0.50 °C
Anzahl der automatisch eingelesenen Messwerte 96

Detaillierte Wetter- und Klima- Messwerte für den 03.02.2017 in Holzhau im Erzgebirge (630m ü.NN)
ZeitTemperaturLuftdruckRel. LuftfeuchteWindWindrichtungWindchillTaupunktNiederschlag l/m²
23:45:001.90 °C1003.20 hPa94.00 %1.00 °C2.07
23:30:001.90 °C1003.10 hPa94.00 %1.00 °C2.07
23:15:001.90 °C1003.20 hPa94.00 %4.68 km/hO1.90 °C1.00 °C2.07
23:00:001.90 °C1003.30 hPa94.00 %4.68 km/hOSO1.90 °C1.00 °C2.07
22:45:001.60 °C1003.30 hPa94.00 %2.52 km/hOSO1.60 °C0.70 °C2.07
22:30:001.60 °C1003.40 hPa94.00 %0.70 °C2.07
22:15:001.60 °C1003.50 hPa94.00 %5.76 km/hOSO-0.10 °C0.70 °C2.07
22:00:001.60 °C1003.50 hPa93.00 %0.60 °C2.07
21:45:001.50 °C1003.70 hPa93.00 %3.60 km/hOSO1.50 °C0.50 °C2.07
21:30:001.60 °C1003.80 hPa93.00 %2.88 km/hSO1.60 °C0.60 °C2.07
21:15:001.40 °C1003.90 hPa93.00 %8.28 km/hSO-1.20 °C0.40 °C2.07
21:00:001.30 °C1003.80 hPa93.00 %0.30 °C2.07
20:45:001.20 °C1003.90 hPa93.00 %0.20 °C2.07
20:30:001.20 °C1003.70 hPa93.00 %0.20 °C2.07
20:15:001.30 °C1003.70 hPa93.00 %0.30 °C2.07
20:00:001.30 °C1003.70 hPa93.00 %0.30 °C2.07
19:45:001.30 °C1003.70 hPa92.00 %0.10 °C2.07
19:30:001.30 °C1003.70 hPa92.00 %0.10 °C2.07
19:15:001.50 °C1003.70 hPa92.00 %0.30 °C2.07
19:00:001.60 °C1003.50 hPa92.00 %0.40 °C2.07
18:45:001.80 °C1003.40 hPa92.00 %0.60 °C2.07
18:30:001.60 °C1003.70 hPa92.00 %4.32 km/hSSO1.60 °C0.40 °C2.07
18:15:001.60 °C1003.70 hPa91.00 %0.30 °C2.07
18:00:001.60 °C1003.80 hPa91.00 %0.30 °C2.07
17:45:001.80 °C1003.90 hPa90.00 %0.30 °C2.07
17:30:001.90 °C1003.80 hPa90.00 %0.40 °C2.07
17:15:002.20 °C1003.90 hPa89.00 %0.60 °C2.07
17:00:002.40 °C1003.80 hPa88.00 %0.60 °C2.07
16:45:002.80 °C1003.50 hPa87.00 %0.90 °C2.07
16:30:003.30 °C1003.70 hPa87.00 %1.30 °C2.07
16:15:003.90 °C1003.70 hPa86.00 %1.80 °C2.07
16:00:004.30 °C1003.70 hPa85.00 %2.00 °C2.07
15:45:004.70 °C1003.70 hPa84.00 %2.20 °C2.07
15:30:005.10 °C1003.70 hPa84.00 %2.60 °C2.07
15:15:005.30 °C1003.50 hPa84.00 %2.80 °C2.07
15:00:005.40 °C1003.60 hPa84.00 %2.90 °C2.07
14:45:005.60 °C1003.40 hPa84.00 %3.10 °C2.07
14:30:005.70 °C1003.50 hPa84.00 %3.20 °C2.07
14:15:005.90 °C1003.50 hPa84.00 %3.40 °C2.07
14:00:005.90 °C1003.60 hPa84.00 %3.40 °C2.07
13:45:005.80 °C1003.70 hPa83.00 %3.10 °C2.07
13:30:006.30 °C1003.80 hPa83.00 %4.32 km/hSO6.30 °C3.60 °C2.07
13:15:006.60 °C1004.30 hPa83.00 %3.90 °C2.07
13:00:006.80 °C1004.20 hPa83.00 %4.10 °C2.07
12:45:006.90 °C1004.30 hPa83.00 %4.20 °C2.07
12:30:006.90 °C1004.30 hPa84.00 %4.40 °C2.07
12:15:007.10 °C1004.30 hPa85.00 %2.52 km/hSO7.10 °C4.80 °C2.07
12:00:007.10 °C1004.20 hPa84.00 %4.60 °C2.07
11:45:006.90 °C1004.40 hPa87.00 %4.90 °C2.07
11:30:006.10 °C1004.70 hPa89.00 %4.40 °C1.55
11:15:005.60 °C1004.90 hPa90.00 %4.10 °C1.55
11:00:005.50 °C1005.10 hPa91.00 %4.20 °C1.55
10:45:005.10 °C1005.00 hPa93.00 %4.10 °C1.55
10:30:004.30 °C1005.00 hPa94.00 %3.40 °C1.55
10:15:003.90 °C1005.00 hPa95.00 %3.20 °C1.55
10:00:003.50 °C1004.90 hPa95.00 %1.08 km/hOSO3.50 °C2.80 °C1.55
09:45:002.90 °C1004.90 hPa95.00 %2.20 °C1.55
09:30:002.60 °C1005.10 hPa95.00 %1.90 °C1.55
09:15:001.90 °C1005.00 hPa95.00 %1.20 °C1.55
09:00:001.60 °C1005.20 hPa95.00 %0.90 °C1.55
08:45:001.10 °C1005.00 hPa95.00 %2.16 km/hOSO1.10 °C0.40 °C1.55
08:30:000.50 °C1005.20 hPa94.00 %-0.40 °C1.55
08:15:000.30 °C1005.30 hPa94.00 %2.88 km/hOSO0.30 °C-0.50 °C1.55
08:00:000.50 °C1005.30 hPa94.00 %-0.40 °C1.55
07:45:000.90 °C1005.20 hPa95.00 %0.20 °C1.55
07:30:001.30 °C1005.10 hPa95.00 %0.60 °C1.55
07:15:001.60 °C1005.00 hPa95.00 %0.90 °C1.55
07:00:001.50 °C1005.20 hPa95.00 %0.80 °C1.55
06:45:001.60 °C1005.10 hPa95.00 %0.90 °C1.55
06:30:001.80 °C1005.10 hPa95.00 %1.10 °C1.55
06:15:001.80 °C1005.10 hPa95.00 %4.68 km/hOSO1.80 °C1.10 °C1.55
06:00:001.30 °C1005.30 hPa95.00 %0.60 °C1.55
05:45:001.50 °C1005.40 hPa95.00 %2.88 km/hSO1.50 °C0.80 °C1.03
05:30:001.30 °C1005.60 hPa95.00 %0.60 °C1.03
05:15:000.90 °C1005.90 hPa95.00 %0.20 °C1.03
05:00:000.90 °C1006.20 hPa95.00 %0.20 °C1.03
04:45:000.90 °C1006.30 hPa94.00 %0.00 °C1.03
04:30:001.10 °C1006.30 hPa94.00 %0.20 °C1.03
04:15:001.30 °C1006.60 hPa95.00 %0.60 °C1.03
04:00:001.40 °C1006.70 hPa95.00 %0.70 °C1.03
03:45:001.20 °C1006.60 hPa95.00 %0.50 °C1.03
03:30:001.10 °C1006.80 hPa94.00 %3.96 km/hOSO1.10 °C0.20 °C1.03
03:15:001.10 °C1006.90 hPa94.00 %0.20 °C1.03
03:00:001.10 °C1007.10 hPa94.00 %4.32 km/hSO1.10 °C0.20 °C1.03
02:45:001.10 °C1007.30 hPa94.00 %0.20 °C1.03
02:30:001.30 °C1007.40 hPa94.00 %4.32 km/hSO1.30 °C0.40 °C0.52
02:15:001.40 °C1007.30 hPa94.00 %0.50 °C0.52
02:00:001.30 °C1007.50 hPa94.00 %0.40 °C0.52
01:45:001.20 °C1007.50 hPa94.00 %6.84 km/hOSO-1.00 °C0.30 °C0.52
01:30:001.30 °C1007.50 hPa94.00 %1.08 km/hOSO1.30 °C0.40 °C0.52
01:15:001.20 °C1007.80 hPa94.00 %2.16 km/hNO1.20 °C0.30 °C0.52
01:00:001.30 °C1007.80 hPa94.00 %2.52 km/hSO1.30 °C0.40 °C0.52
00:45:001.10 °C1007.90 hPa94.00 %0.20 °C0.52
00:30:000.90 °C1007.80 hPa94.00 %0.00 °C0.52
00:15:000.90 °C1007.90 hPa94.00 %0.00 °C0.52
00:00:001.00 °C1008.00 hPa94.00 %4.32 km/hOSO1.00 °C0.10 °C 

Permanenter Link zu dieser Seite: Wetter im Erzgebirge am 03.02.2017
Performance-Info: Die Erstellung der Seite / Statistik(en) / Tabelle(n) erforderte 5 Datenbankserver-Abfrage(n) und dauerte 100 Millisekunden. (Dieser Messwert ist von der Gesamt-Auslastung des Servers abhängig.)
Erzgebirge - Wetter | Erzgebirge - Wetter (Mobilgeräte) | Komplette Klimadatenbank